UTA160 URKA-UWWW
Flight info
| Callsign | UTA160 |
|---|---|
| Flight time | 2h 3m |
| Altitude | 34000 |
| Route | RUDOL W316 AMEPU/K0846F350 A808 MOR/K0839F340 G128 ST G900 OBABI/K0846F350 G900 KR P135 TUNIG |
| Aircraft | B738/M-SDE2E3FGHIRWXY/LB1 |
Departure
| Time | 2026-04-24 19:21 |
|---|---|
| Airport | Anapa Vityazevo Airport (URKA) |
Arrival
| Time | 2026-04-24 21:24 |
|---|---|
| Airport | Kurumoch International Airport (UWWW) |
| Time | Latitude | Longitude | Altitude | Speed | Heading |
|---|---|---|---|---|---|
| 2026-04-24 18:57 | 45.00451 | 37.34619 | 180 ft | 0 kts | 222° |
| 2026-04-24 19:16 | 45.00450 | 37.34618 | 180 ft | 1 kts | 222° |
| 2026-04-24 19:16 | 45.00439 | 37.34604 | 180 ft | 4 kts | 217° |
| 2026-04-24 19:16 | 45.00410 | 37.34594 | 180 ft | 5 kts | 171° |
| 2026-04-24 19:17 | 45.00395 | 37.34630 | 180 ft | 5 kts | 82° |
| 2026-04-24 19:17 | 45.00419 | 37.34684 | 180 ft | 8 kts | 45° |
| 2026-04-24 19:17 | 45.00473 | 37.34754 | 180 ft | 13 kts | 42° |
| 2026-04-24 19:17 | 45.00548 | 37.34849 | 180 ft | 16 kts | 42° |
| 2026-04-24 19:18 | 45.00639 | 37.34964 | 180 ft | 18 kts | 41° |
| 2026-04-24 19:18 | 45.00732 | 37.35082 | 180 ft | 18 kts | 43° |
| 2026-04-24 19:18 | 45.00821 | 37.35197 | 180 ft | 17 kts | 42° |
| 2026-04-24 19:18 | 45.00908 | 37.35303 | 180 ft | 16 kts | 40° |
| 2026-04-24 19:19 | 45.00991 | 37.35410 | 180 ft | 16 kts | 42° |
| 2026-04-24 19:19 | 45.01063 | 37.35518 | 180 ft | 15 kts | 67° |
| 2026-04-24 19:19 | 45.01068 | 37.35628 | 179 ft | 9 kts | 100° |
| 2026-04-24 19:19 | 45.01040 | 37.35722 | 174 ft | 13 kts | 130° |
| 2026-04-24 19:20 | 45.00962 | 37.35696 | 171 ft | 13 kts | 224° |
| 2026-04-24 19:20 | 45.00789 | 37.35467 | 170 ft | 67 kts | 221° |
| 2026-04-24 19:20 | 45.00277 | 37.34817 | 171 ft | 129 kts | 222° |
| 2026-04-24 19:20 | 44.99479 | 37.33833 | 306 ft | 167 kts | 223° |
| 2026-04-24 19:21 | 44.98617 | 37.32744 | 1058 ft | 166 kts | 225° |
| 2026-04-24 19:21 | 44.97759 | 37.31631 | 1765 ft | 169 kts | 226° |
| 2026-04-24 19:21 | 44.96847 | 37.30450 | 2185 ft | 190 kts | 225° |
| 2026-04-24 19:21 | 44.95811 | 37.29117 | 2399 ft | 212 kts | 224° |
| 2026-04-24 19:22 | 44.95078 | 37.28153 | 2630 ft | 219 kts | 230° |
| 2026-04-24 19:22 | 44.94267 | 37.25476 | 2952 ft | 239 kts | 266° |
| 2026-04-24 19:22 | 44.94613 | 37.23173 | 3003 ft | 249 kts | 295° |
| 2026-04-24 19:22 | 44.95791 | 37.21344 | 3057 ft | 259 kts | 325° |
| 2026-04-24 19:23 | 44.97535 | 37.20588 | 3676 ft | 268 kts | 354° |
| 2026-04-24 19:23 | 44.99373 | 37.21110 | 4488 ft | 278 kts | 24° |
| 2026-04-24 19:23 | 45.00849 | 37.22894 | 5243 ft | 285 kts | 49° |
| 2026-04-24 19:23 | 45.02062 | 37.25153 | 5934 ft | 290 kts | 51° |
| 2026-04-24 19:24 | 45.03269 | 37.27455 | 6628 ft | 293 kts | 51° |
| 2026-04-24 19:24 | 45.04494 | 37.29738 | 7325 ft | 297 kts | 50° |
| 2026-04-24 19:24 | 45.05774 | 37.32046 | 8008 ft | 300 kts | 49° |
| 2026-04-24 19:24 | 45.07084 | 37.34375 | 8662 ft | 304 kts | 49° |
| 2026-04-24 19:25 | 45.08416 | 37.36731 | 9339 ft | 307 kts | 49° |
| 2026-04-24 19:25 | 45.09713 | 37.38930 | 9964 ft | 308 kts | 43° |
| 2026-04-24 19:25 | 45.11311 | 37.41023 | 10347 ft | 322 kts | 37° |
| 2026-04-24 19:25 | 45.13087 | 37.43133 | 10527 ft | 343 kts | 36° |
| 2026-04-24 19:26 | 45.14968 | 37.45331 | 10896 ft | 356 kts | 36° |
| 2026-04-24 19:26 | 45.16891 | 37.47596 | 11480 ft | 361 kts | 36° |
| 2026-04-24 19:26 | 45.18812 | 37.49891 | 12209 ft | 361 kts | 37° |
| 2026-04-24 19:26 | 45.20735 | 37.52210 | 12840 ft | 365 kts | 37° |
| 2026-04-24 19:27 | 45.22680 | 37.54569 | 13464 ft | 370 kts | 37° |
| 2026-04-24 19:27 | 45.24644 | 37.56960 | 14078 ft | 374 kts | 37° |
| 2026-04-24 19:27 | 45.26626 | 37.59380 | 14712 ft | 379 kts | 37° |
| 2026-04-24 19:27 | 45.28635 | 37.61837 | 15332 ft | 383 kts | 37° |
| 2026-04-24 19:28 | 45.30663 | 37.64321 | 15922 ft | 388 kts | 37° |
| 2026-04-24 19:28 | 45.32719 | 37.66842 | 16519 ft | 392 kts | 37° |
| 2026-04-24 19:28 | 45.34774 | 37.69365 | 17093 ft | 397 kts | 36° |
| 2026-04-24 19:28 | 45.36869 | 37.71939 | 17636 ft | 400 kts | 37° |
| 2026-04-24 19:29 | 45.41146 | 37.77186 | 18679 ft | 410 kts | 36° |
| 2026-04-24 19:29 | 45.43324 | 37.79828 | 19355 ft | 412 kts | 36° |
| 2026-04-24 19:29 | 45.45511 | 37.82473 | 19889 ft | 415 kts | 34° |
| 2026-04-24 19:30 | 45.47812 | 37.84993 | 20346 ft | 418 kts | 32° |
| 2026-04-24 19:30 | 45.50171 | 37.87455 | 20862 ft | 421 kts | 31° |
| 2026-04-24 19:30 | 45.52549 | 37.89909 | 21392 ft | 424 kts | 31° |
| 2026-04-24 19:30 | 45.54943 | 37.92390 | 21883 ft | 427 kts | 31° |
| 2026-04-24 19:31 | 45.57352 | 37.94907 | 22320 ft | 431 kts | 31° |
| 2026-04-24 19:31 | 45.59781 | 37.97465 | 22769 ft | 435 kts | 31° |
| 2026-04-24 19:31 | 45.62214 | 38.00045 | 23240 ft | 437 kts | 31° |
| 2026-04-24 19:31 | 45.64631 | 38.02622 | 23667 ft | 441 kts | 31° |
| 2026-04-24 19:32 | 45.67130 | 38.05291 | 24036 ft | 445 kts | 31° |
| 2026-04-24 19:32 | 45.69621 | 38.07956 | 24444 ft | 448 kts | 32° |
| 2026-04-24 19:32 | 45.72086 | 38.10599 | 24865 ft | 450 kts | 32° |
| 2026-04-24 19:32 | 45.74604 | 38.13303 | 25258 ft | 453 kts | 32° |
| 2026-04-24 19:33 | 45.77135 | 38.16022 | 25614 ft | 456 kts | 32° |
| 2026-04-24 19:33 | 45.79685 | 38.18763 | 25967 ft | 459 kts | 32° |
| 2026-04-24 19:33 | 45.82247 | 38.21520 | 26324 ft | 462 kts | 32° |
| 2026-04-24 19:33 | 45.84825 | 38.24297 | 26682 ft | 465 kts | 32° |
| 2026-04-24 19:34 | 45.87417 | 38.27094 | 27011 ft | 468 kts | 32° |
| 2026-04-24 19:34 | 45.90027 | 38.29913 | 27316 ft | 471 kts | 32° |
| 2026-04-24 19:34 | 45.92658 | 38.32757 | 27602 ft | 474 kts | 32° |
| 2026-04-24 19:34 | 45.95296 | 38.35613 | 27923 ft | 476 kts | 32° |
| 2026-04-24 19:35 | 45.97948 | 38.38490 | 28245 ft | 478 kts | 32° |
| 2026-04-24 19:35 | 46.00607 | 38.41377 | 28535 ft | 481 kts | 32° |
| 2026-04-24 19:35 | 46.03284 | 38.44288 | 28820 ft | 483 kts | 32° |
| 2026-04-24 19:35 | 46.05974 | 38.47216 | 29120 ft | 485 kts | 32° |
| 2026-04-24 19:36 | 46.08638 | 38.50118 | 29370 ft | 487 kts | 32° |
| 2026-04-24 19:36 | 46.11354 | 38.53079 | 29622 ft | 490 kts | 32° |
| 2026-04-24 19:36 | 46.14080 | 38.56057 | 29888 ft | 491 kts | 32° |
| 2026-04-24 19:36 | 46.16809 | 38.59043 | 30230 ft | 491 kts | 32° |
| 2026-04-24 19:37 | 46.19522 | 38.62018 | 30646 ft | 489 kts | 32° |
| 2026-04-24 19:37 | 46.21313 | 38.63983 | 30927 ft | 487 kts | 32° |
| 2026-04-24 19:37 | 46.24877 | 38.67896 | 31432 ft | 485 kts | 32° |
| 2026-04-24 19:37 | 46.27560 | 38.70845 | 31705 ft | 485 kts | 32° |
| 2026-04-24 19:38 | 46.30249 | 38.73800 | 31967 ft | 486 kts | 33° |
| 2026-04-24 19:38 | 46.32035 | 38.75767 | 32164 ft | 486 kts | 33° |
| 2026-04-24 19:38 | 46.34716 | 38.78724 | 32522 ft | 483 kts | 33° |
| 2026-04-24 19:38 | 46.37393 | 38.81680 | 32863 ft | 482 kts | 33° |
| 2026-04-24 19:39 | 46.40057 | 38.84626 | 33173 ft | 481 kts | 33° |
| 2026-04-24 19:39 | 46.42715 | 38.87569 | 33445 ft | 481 kts | 33° |
| 2026-04-24 19:39 | 46.45377 | 38.90519 | 33684 ft | 481 kts | 33° |
| 2026-04-24 19:39 | 46.48035 | 38.93470 | 33903 ft | 481 kts | 33° |
| 2026-04-24 19:40 | 46.50708 | 38.96440 | 33877 ft | 485 kts | 33° |
| 2026-04-24 19:40 | 46.56053 | 39.02415 | 33878 ft | 483 kts | 34° |
| 2026-04-24 19:41 | 46.61170 | 39.08668 | 33882 ft | 480 kts | 37° |
| 2026-04-24 19:41 | 46.66178 | 39.15001 | 33875 ft | 480 kts | 37° |
| 2026-04-24 19:42 | 46.71238 | 39.21349 | 33885 ft | 479 kts | 36° |
| 2026-04-24 19:42 | 46.76309 | 39.27671 | 33871 ft | 480 kts | 36° |
| 2026-04-24 19:43 | 46.81394 | 39.34013 | 33872 ft | 481 kts | 37° |
| 2026-04-24 19:43 | 46.86479 | 39.40373 | 33872 ft | 481 kts | 37° |
| 2026-04-24 19:44 | 46.91570 | 39.46765 | 33871 ft | 482 kts | 37° |
| 2026-04-24 19:44 | 46.96665 | 39.53176 | 33866 ft | 483 kts | 37° |
| 2026-04-24 19:45 | 47.01730 | 39.59564 | 33865 ft | 484 kts | 37° |
| 2026-04-24 19:45 | 47.06832 | 39.66017 | 33860 ft | 484 kts | 37° |
| 2026-04-24 19:46 | 47.11924 | 39.72475 | 33863 ft | 484 kts | 37° |
| 2026-04-24 19:46 | 47.17019 | 39.78948 | 33857 ft | 483 kts | 37° |
| 2026-04-24 19:47 | 47.21928 | 39.85696 | 33861 ft | 485 kts | 44° |
| 2026-04-24 19:47 | 47.26380 | 39.93176 | 33857 ft | 486 kts | 46° |
| 2026-04-24 19:48 | 47.30765 | 40.00732 | 33861 ft | 484 kts | 46° |
| 2026-04-24 19:48 | 47.37392 | 40.11968 | 33867 ft | 484 kts | 46° |
| 2026-04-24 19:49 | 47.46250 | 40.26901 | 33862 ft | 484 kts | 46° |
| 2026-04-24 19:50 | 47.55102 | 40.41926 | 33858 ft | 484 kts | 46° |
| 2026-04-24 19:51 | 47.61740 | 40.53251 | 33861 ft | 485 kts | 46° |
| 2026-04-24 19:52 | 47.68339 | 40.64555 | 33848 ft | 486 kts | 46° |
| 2026-04-24 19:52 | 47.72756 | 40.72150 | 33856 ft | 486 kts | 46° |
| 2026-04-24 19:53 | 47.77175 | 40.79772 | 33848 ft | 487 kts | 46° |
| 2026-04-24 19:54 | 47.83807 | 40.91239 | 33851 ft | 488 kts | 47° |
| 2026-04-24 19:54 | 47.88223 | 40.98912 | 33851 ft | 488 kts | 47° |
| 2026-04-24 19:55 | 47.91898 | 41.05317 | 33854 ft | 489 kts | 47° |
| 2026-04-24 19:55 | 47.97076 | 41.14362 | 33848 ft | 491 kts | 47° |
| 2026-04-24 19:56 | 48.01477 | 41.22077 | 33841 ft | 492 kts | 47° |
| 2026-04-24 19:56 | 48.05903 | 41.29857 | 33841 ft | 491 kts | 47° |
| 2026-04-24 19:57 | 48.10309 | 41.37672 | 33839 ft | 491 kts | 48° |
| 2026-04-24 19:57 | 48.14720 | 41.45472 | 33832 ft | 490 kts | 47° |
| 2026-04-24 19:58 | 48.19141 | 41.53256 | 33832 ft | 490 kts | 47° |
| 2026-04-24 19:58 | 48.23556 | 41.61062 | 33830 ft | 490 kts | 47° |
| 2026-04-24 19:59 | 48.27927 | 41.68819 | 33824 ft | 489 kts | 48° |
| 2026-04-24 19:59 | 48.32325 | 41.76649 | 33821 ft | 489 kts | 48° |
| 2026-04-24 20:00 | 48.36652 | 41.84550 | 33815 ft | 490 kts | 50° |
| 2026-04-24 20:00 | 48.40788 | 41.92712 | 33812 ft | 490 kts | 51° |
| 2026-04-24 20:01 | 48.44906 | 42.00896 | 33807 ft | 490 kts | 51° |
| 2026-04-24 20:01 | 48.49052 | 42.09070 | 33799 ft | 491 kts | 51° |
| 2026-04-24 20:02 | 48.52502 | 42.15862 | 33806 ft | 491 kts | 51° |
| 2026-04-24 20:02 | 48.57336 | 42.25414 | 33798 ft | 492 kts | 51° |
| 2026-04-24 20:03 | 48.61489 | 42.33658 | 33482 ft | 492 kts | 51° |
| 2026-04-24 20:03 | 48.63550 | 42.37785 | 33233 ft | 489 kts | 51° |
| 2026-04-24 20:03 | 48.65560 | 42.41827 | 32986 ft | 487 kts | 51° |
| 2026-04-24 20:03 | 48.67602 | 42.45936 | 32828 ft | 489 kts | 51° |
| 2026-04-24 20:04 | 48.69650 | 42.50056 | 32799 ft | 491 kts | 51° |
| 2026-04-24 20:04 | 48.73752 | 42.58331 | 32784 ft | 491 kts | 51° |
| 2026-04-24 20:05 | 48.77837 | 42.66609 | 32775 ft | 490 kts | 52° |
| 2026-04-24 20:05 | 48.81864 | 42.74929 | 32773 ft | 488 kts | 52° |
| 2026-04-24 20:06 | 48.85861 | 42.83261 | 32754 ft | 488 kts | 52° |
| 2026-04-24 20:06 | 48.89853 | 42.91595 | 32747 ft | 488 kts | 52° |
| 2026-04-24 20:07 | 48.93170 | 42.98526 | 32740 ft | 488 kts | 52° |
| 2026-04-24 20:07 | 48.97841 | 43.08315 | 32737 ft | 488 kts | 52° |
| 2026-04-24 20:08 | 49.01830 | 43.16705 | 32740 ft | 489 kts | 52° |
| 2026-04-24 20:08 | 49.05818 | 43.25121 | 32746 ft | 490 kts | 53° |
| 2026-04-24 20:09 | 49.09807 | 43.33562 | 32743 ft | 491 kts | 53° |
| 2026-04-24 20:09 | 49.13769 | 43.41972 | 32734 ft | 491 kts | 53° |
| 2026-04-24 20:10 | 49.17759 | 43.50473 | 32741 ft | 492 kts | 53° |
| 2026-04-24 20:10 | 49.21748 | 43.58995 | 32741 ft | 492 kts | 53° |
| 2026-04-24 20:11 | 49.26000 | 43.67174 | 32737 ft | 489 kts | 42° |
| 2026-04-24 20:11 | 49.31355 | 43.73331 | 32751 ft | 483 kts | 28° |
| 2026-04-24 20:12 | 49.37124 | 43.78612 | 32740 ft | 483 kts | 27° |
| 2026-04-24 20:12 | 49.42867 | 43.83966 | 32741 ft | 483 kts | 28° |
| 2026-04-24 20:13 | 49.48568 | 43.89400 | 32736 ft | 482 kts | 28° |
| 2026-04-24 20:13 | 49.54233 | 43.94975 | 32718 ft | 484 kts | 31° |
| 2026-04-24 20:14 | 49.59730 | 44.00960 | 32729 ft | 484 kts | 33° |
| 2026-04-24 20:14 | 49.65190 | 44.07026 | 32732 ft | 483 kts | 33° |
| 2026-04-24 20:15 | 49.70660 | 44.13061 | 32711 ft | 483 kts | 32° |
| 2026-04-24 20:15 | 49.76141 | 44.19081 | 32721 ft | 483 kts | 32° |
| 2026-04-24 20:16 | 49.81603 | 44.25084 | 32715 ft | 483 kts | 32° |
| 2026-04-24 20:16 | 49.87079 | 44.31119 | 32714 ft | 483 kts | 33° |
| 2026-04-24 20:17 | 49.92556 | 44.37173 | 32713 ft | 483 kts | 33° |
| 2026-04-24 20:17 | 50.00763 | 44.46283 | 32706 ft | 483 kts | 33° |
| 2026-04-24 20:18 | 50.06236 | 44.52380 | 32703 ft | 483 kts | 33° |
| 2026-04-24 20:18 | 50.11703 | 44.58487 | 32689 ft | 483 kts | 33° |
| 2026-04-24 20:19 | 50.17173 | 44.64614 | 32677 ft | 483 kts | 33° |
| 2026-04-24 20:19 | 50.22604 | 44.70717 | 32679 ft | 483 kts | 33° |
| 2026-04-24 20:20 | 50.28058 | 44.76862 | 32676 ft | 483 kts | 33° |
| 2026-04-24 20:20 | 50.33503 | 44.83014 | 32664 ft | 482 kts | 33° |
| 2026-04-24 20:21 | 50.38942 | 44.89176 | 32662 ft | 482 kts | 34° |
| 2026-04-24 20:21 | 50.44380 | 44.95359 | 32647 ft | 482 kts | 34° |
| 2026-04-24 20:22 | 50.49789 | 45.01524 | 32635 ft | 483 kts | 34° |
| 2026-04-24 20:22 | 50.55228 | 45.07741 | 32617 ft | 484 kts | 34° |
| 2026-04-24 20:23 | 50.60665 | 45.13974 | 32606 ft | 484 kts | 34° |
| 2026-04-24 20:23 | 50.66108 | 45.20233 | 32589 ft | 484 kts | 34° |
| 2026-04-24 20:24 | 50.70626 | 45.25443 | 32592 ft | 484 kts | 34° |
| 2026-04-24 20:24 | 50.76061 | 45.31726 | 32565 ft | 484 kts | 34° |
| 2026-04-24 20:25 | 50.81499 | 45.38032 | 32554 ft | 484 kts | 34° |
| 2026-04-24 20:25 | 50.86933 | 45.44352 | 32550 ft | 484 kts | 35° |
| 2026-04-24 20:26 | 50.92269 | 45.50877 | 32545 ft | 485 kts | 37° |
| 2026-04-24 20:26 | 50.97558 | 45.57507 | 32531 ft | 484 kts | 37° |
| 2026-04-24 20:27 | 51.02858 | 45.63988 | 32522 ft | 482 kts | 32° |
| 2026-04-24 20:27 | 51.08763 | 45.68871 | 32528 ft | 478 kts | 22° |
| 2026-04-24 20:28 | 51.14824 | 45.73254 | 32518 ft | 478 kts | 22° |
| 2026-04-24 20:28 | 51.20854 | 45.77697 | 32513 ft | 477 kts | 22° |
| 2026-04-24 20:29 | 51.26863 | 45.82214 | 32512 ft | 477 kts | 23° |
| 2026-04-24 20:29 | 51.32857 | 45.86753 | 32507 ft | 476 kts | 23° |
| 2026-04-24 20:30 | 51.38854 | 45.91301 | 32506 ft | 476 kts | 23° |
| 2026-04-24 20:30 | 51.44793 | 45.95814 | 32501 ft | 475 kts | 24° |
| 2026-04-24 20:31 | 51.50775 | 46.00374 | 32503 ft | 475 kts | 24° |
| 2026-04-24 20:31 | 51.56670 | 46.05213 | 32488 ft | 477 kts | 32° |
| 2026-04-24 20:32 | 51.61800 | 46.11978 | 32500 ft | 478 kts | 41° |
| 2026-04-24 20:32 | 51.66770 | 46.19117 | 32493 ft | 479 kts | 41° |
| 2026-04-24 20:33 | 51.71788 | 46.26206 | 32500 ft | 479 kts | 40° |
| 2026-04-24 20:33 | 51.76827 | 46.33263 | 32497 ft | 480 kts | 40° |
| 2026-04-24 20:34 | 51.81800 | 46.40452 | 32487 ft | 480 kts | 47° |
| 2026-04-24 20:34 | 51.85939 | 46.48826 | 32497 ft | 480 kts | 53° |
| 2026-04-24 20:35 | 51.89980 | 46.57423 | 32494 ft | 480 kts | 52° |
| 2026-04-24 20:35 | 51.94093 | 46.65966 | 32498 ft | 481 kts | 52° |
| 2026-04-24 20:36 | 51.98189 | 46.74546 | 32500 ft | 481 kts | 53° |
| 2026-04-24 20:36 | 52.02245 | 46.83102 | 32407 ft | 469 kts | 53° |
| 2026-04-24 20:37 | 52.04220 | 46.87277 | 32062 ft | 462 kts | 53° |
| 2026-04-24 20:37 | 52.06170 | 46.91402 | 31693 ft | 458 kts | 53° |
| 2026-04-24 20:37 | 52.08099 | 46.95490 | 31290 ft | 454 kts | 54° |
| 2026-04-24 20:37 | 52.10020 | 46.99567 | 30900 ft | 451 kts | 54° |
| 2026-04-24 20:38 | 52.11894 | 47.03553 | 30506 ft | 448 kts | 54° |
| 2026-04-24 20:38 | 52.13783 | 47.07572 | 30102 ft | 445 kts | 54° |
| 2026-04-24 20:38 | 52.15657 | 47.11568 | 29710 ft | 443 kts | 54° |
| 2026-04-24 20:38 | 52.17524 | 47.15550 | 29308 ft | 440 kts | 54° |
| 2026-04-24 20:39 | 52.19376 | 47.19506 | 28903 ft | 437 kts | 54° |
| 2026-04-24 20:39 | 52.21219 | 47.23446 | 28486 ft | 435 kts | 54° |
| 2026-04-24 20:39 | 52.23043 | 47.27354 | 28072 ft | 432 kts | 55° |
| 2026-04-24 20:39 | 52.24857 | 47.31244 | 27670 ft | 429 kts | 55° |
| 2026-04-24 20:40 | 52.26662 | 47.35125 | 27256 ft | 427 kts | 55° |
| 2026-04-24 20:40 | 52.28450 | 47.38974 | 26852 ft | 424 kts | 55° |
| 2026-04-24 20:40 | 52.30228 | 47.42806 | 26448 ft | 422 kts | 56° |
| 2026-04-24 20:40 | 52.31970 | 47.46567 | 26043 ft | 419 kts | 56° |
| 2026-04-24 20:41 | 52.33727 | 47.50363 | 25650 ft | 417 kts | 56° |
| 2026-04-24 20:41 | 52.35472 | 47.54137 | 25247 ft | 415 kts | 56° |
| 2026-04-24 20:41 | 52.37207 | 47.57891 | 24851 ft | 412 kts | 56° |
| 2026-04-24 20:41 | 52.38933 | 47.61632 | 24453 ft | 410 kts | 56° |
| 2026-04-24 20:42 | 52.40649 | 47.65348 | 24065 ft | 405 kts | 57° |
| 2026-04-24 20:42 | 52.42318 | 47.69052 | 23666 ft | 404 kts | 57° |
| 2026-04-24 20:42 | 52.44005 | 47.72751 | 23256 ft | 404 kts | 56° |
| 2026-04-24 20:42 | 52.45699 | 47.76402 | 22887 ft | 402 kts | 55° |
| 2026-04-24 20:43 | 52.47396 | 47.80025 | 22476 ft | 398 kts | 56° |
| 2026-04-24 20:43 | 52.49053 | 47.83646 | 22112 ft | 396 kts | 56° |
| 2026-04-24 20:43 | 52.50696 | 47.87257 | 21735 ft | 393 kts | 56° |
| 2026-04-24 20:43 | 52.52324 | 47.90847 | 21368 ft | 391 kts | 56° |
| 2026-04-24 20:44 | 52.53948 | 47.94424 | 20971 ft | 389 kts | 56° |
| 2026-04-24 20:44 | 52.55561 | 47.97978 | 20600 ft | 387 kts | 56° |
| 2026-04-24 20:44 | 52.57162 | 48.01504 | 20226 ft | 384 kts | 56° |
| 2026-04-24 20:44 | 52.58755 | 48.05012 | 19843 ft | 380 kts | 56° |
| 2026-04-24 20:45 | 52.60332 | 48.08490 | 19469 ft | 377 kts | 56° |
| 2026-04-24 20:45 | 52.61882 | 48.11879 | 19086 ft | 373 kts | 57° |
| 2026-04-24 20:45 | 52.63436 | 48.15354 | 18726 ft | 369 kts | 56° |
| 2026-04-24 20:45 | 52.64940 | 48.18690 | 18373 ft | 365 kts | 56° |
| 2026-04-24 20:46 | 52.66481 | 48.22033 | 18032 ft | 365 kts | 56° |
| 2026-04-24 20:46 | 52.67966 | 48.25400 | 17677 ft | 362 kts | 57° |
| 2026-04-24 20:46 | 52.69457 | 48.28748 | 17322 ft | 361 kts | 57° |
| 2026-04-24 20:46 | 52.70956 | 48.32088 | 16991 ft | 360 kts | 56° |
| 2026-04-24 20:47 | 52.72429 | 48.35394 | 16632 ft | 356 kts | 58° |
| 2026-04-24 20:47 | 52.73886 | 48.38681 | 16277 ft | 351 kts | 56° |
| 2026-04-24 20:47 | 52.75345 | 48.41872 | 15944 ft | 346 kts | 57° |
| 2026-04-24 20:47 | 52.76773 | 48.45080 | 15615 ft | 345 kts | 58° |
| 2026-04-24 20:48 | 52.78157 | 48.48285 | 15283 ft | 341 kts | 58° |
| 2026-04-24 20:48 | 52.79566 | 48.51428 | 14951 ft | 342 kts | 57° |
| 2026-04-24 20:48 | 52.80973 | 48.54577 | 14609 ft | 338 kts | 57° |
| 2026-04-24 20:48 | 52.82362 | 48.57686 | 14288 ft | 335 kts | 57° |
| 2026-04-24 20:49 | 52.83705 | 48.60747 | 13972 ft | 331 kts | 59° |
| 2026-04-24 20:49 | 52.85020 | 48.63860 | 13635 ft | 329 kts | 58° |
| 2026-04-24 20:49 | 52.86371 | 48.66883 | 13324 ft | 326 kts | 58° |
| 2026-04-24 20:49 | 52.87730 | 48.69881 | 13019 ft | 325 kts | 57° |
| 2026-04-24 20:50 | 52.89084 | 48.72870 | 12698 ft | 324 kts | 56° |
| 2026-04-24 20:50 | 52.90434 | 48.75844 | 12377 ft | 320 kts | 58° |
| 2026-04-24 20:50 | 52.91734 | 48.78835 | 12069 ft | 319 kts | 59° |
| 2026-04-24 20:50 | 52.93021 | 48.81798 | 11745 ft | 314 kts | 58° |
| 2026-04-24 20:51 | 52.94295 | 48.84725 | 11453 ft | 310 kts | 59° |
| 2026-04-24 20:51 | 52.95563 | 48.87647 | 11159 ft | 312 kts | 57° |
| 2026-04-24 20:51 | 52.96852 | 48.90537 | 10859 ft | 309 kts | 58° |
| 2026-04-24 20:51 | 52.98107 | 48.93436 | 10559 ft | 308 kts | 59° |
| 2026-04-24 20:52 | 52.99358 | 48.96351 | 10254 ft | 310 kts | 58° |
| 2026-04-24 20:52 | 53.00600 | 48.99223 | 9952 ft | 309 kts | 58° |
| 2026-04-24 20:52 | 53.01854 | 49.02105 | 9758 ft | 305 kts | 58° |
| 2026-04-24 20:52 | 53.03076 | 49.04923 | 9607 ft | 298 kts | 58° |
| 2026-04-24 20:53 | 53.04269 | 49.07682 | 9462 ft | 291 kts | 58° |
| 2026-04-24 20:53 | 53.05449 | 49.10407 | 9178 ft | 288 kts | 58° |
| 2026-04-24 20:53 | 53.06636 | 49.13096 | 8934 ft | 288 kts | 57° |
| 2026-04-24 20:53 | 53.07757 | 49.15825 | 8678 ft | 286 kts | 58° |
| 2026-04-24 20:54 | 53.09059 | 49.18322 | 8475 ft | 285 kts | 41° |
| 2026-04-24 20:54 | 53.10627 | 49.20272 | 8409 ft | 287 kts | 37° |
| 2026-04-24 20:54 | 53.12285 | 49.22233 | 8331 ft | 297 kts | 37° |
| 2026-04-24 20:54 | 53.13986 | 49.24243 | 8203 ft | 302 kts | 37° |
| 2026-04-24 20:55 | 53.15694 | 49.26309 | 8089 ft | 304 kts | 37° |
| 2026-04-24 20:55 | 53.17406 | 49.28360 | 7972 ft | 303 kts | 37° |
| 2026-04-24 20:55 | 53.19106 | 49.30408 | 7862 ft | 301 kts | 38° |
| 2026-04-24 20:55 | 53.20801 | 49.32452 | 7753 ft | 300 kts | 38° |
| 2026-04-24 20:56 | 53.22490 | 49.34501 | 7664 ft | 300 kts | 38° |
| 2026-04-24 20:56 | 53.24176 | 49.36551 | 7544 ft | 298 kts | 38° |
| 2026-04-24 20:56 | 53.25847 | 49.38594 | 7457 ft | 297 kts | 38° |
| 2026-04-24 20:56 | 53.27521 | 49.40645 | 7349 ft | 298 kts | 38° |
| 2026-04-24 20:57 | 53.29169 | 49.42664 | 7241 ft | 297 kts | 39° |
| 2026-04-24 20:57 | 53.30858 | 49.44729 | 7147 ft | 297 kts | 39° |
| 2026-04-24 20:57 | 53.32503 | 49.46747 | 6996 ft | 297 kts | 39° |
| 2026-04-24 20:57 | 53.34202 | 49.48827 | 6928 ft | 299 kts | 39° |
| 2026-04-24 20:58 | 53.35911 | 49.50890 | 6839 ft | 307 kts | 39° |
| 2026-04-24 20:58 | 53.37595 | 49.53050 | 6732 ft | 310 kts | 40° |
| 2026-04-24 20:58 | 53.39337 | 49.55197 | 6611 ft | 310 kts | 39° |
| 2026-04-24 20:58 | 53.41053 | 49.57350 | 6500 ft | 305 kts | 38° |
| 2026-04-24 20:59 | 53.42793 | 49.59411 | 6289 ft | 307 kts | 39° |
| 2026-04-24 20:59 | 53.44518 | 49.61514 | 6095 ft | 305 kts | 40° |
| 2026-04-24 20:59 | 53.46221 | 49.63625 | 5927 ft | 303 kts | 40° |
| 2026-04-24 20:59 | 53.47906 | 49.65724 | 5741 ft | 302 kts | 39° |
| 2026-04-24 21:00 | 53.49590 | 49.67815 | 5535 ft | 300 kts | 40° |
| 2026-04-24 21:00 | 53.51267 | 49.69906 | 5348 ft | 300 kts | 40° |
| 2026-04-24 21:00 | 53.52942 | 49.71987 | 5162 ft | 299 kts | 40° |
| 2026-04-24 21:00 | 53.54613 | 49.74061 | 4972 ft | 298 kts | 40° |
| 2026-04-24 21:01 | 53.56271 | 49.76121 | 4783 ft | 296 kts | 40° |
| 2026-04-24 21:01 | 53.57925 | 49.78179 | 4610 ft | 295 kts | 40° |
| 2026-04-24 21:01 | 53.59566 | 49.80240 | 4406 ft | 293 kts | 40° |
| 2026-04-24 21:01 | 53.61194 | 49.82276 | 4226 ft | 291 kts | 40° |
| 2026-04-24 21:02 | 53.62815 | 49.84292 | 4064 ft | 289 kts | 40° |
| 2026-04-24 21:02 | 53.64411 | 49.86284 | 4003 ft | 290 kts | 40° |
| 2026-04-24 21:02 | 53.66031 | 49.88319 | 4016 ft | 290 kts | 43° |
| 2026-04-24 21:02 | 53.67282 | 49.90866 | 3986 ft | 277 kts | 73° |
| 2026-04-24 21:03 | 53.67732 | 49.93956 | 3822 ft | 268 kts | 92° |
| 2026-04-24 21:03 | 53.67767 | 49.97049 | 3613 ft | 261 kts | 98° |
| 2026-04-24 21:03 | 53.67733 | 50.00080 | 3416 ft | 256 kts | 97° |
| 2026-04-24 21:03 | 53.67710 | 50.03003 | 3361 ft | 241 kts | 98° |
| 2026-04-24 21:04 | 53.67555 | 50.05682 | 3279 ft | 215 kts | 119° |
| 2026-04-24 21:04 | 53.66683 | 50.07399 | 3199 ft | 184 kts | 156° |
| 2026-04-24 21:04 | 53.65560 | 50.08313 | 2997 ft | 176 kts | 157° |
| 2026-04-24 21:04 | 53.64487 | 50.09186 | 2815 ft | 173 kts | 160° |
| 2026-04-24 21:05 | 53.63347 | 50.09956 | 2605 ft | 175 kts | 163° |
| 2026-04-24 21:05 | 53.62223 | 50.10646 | 2401 ft | 171 kts | 165° |
| 2026-04-24 21:05 | 53.61089 | 50.11325 | 2196 ft | 175 kts | 164° |
| 2026-04-24 21:05 | 53.59946 | 50.12008 | 1987 ft | 176 kts | 163° |
| 2026-04-24 21:06 | 53.58833 | 50.12676 | 1786 ft | 161 kts | 163° |
| 2026-04-24 21:06 | 53.57832 | 50.13275 | 1597 ft | 144 kts | 163° |
| 2026-04-24 21:06 | 53.56922 | 50.13820 | 1426 ft | 135 kts | 164° |
| 2026-04-24 21:06 | 53.56032 | 50.14348 | 1270 ft | 136 kts | 163° |
| 2026-04-24 21:07 | 53.55133 | 50.14888 | 1098 ft | 137 kts | 163° |
| 2026-04-24 21:07 | 53.54235 | 50.15425 | 946 ft | 137 kts | 165° |
| 2026-04-24 21:07 | 53.53318 | 50.15907 | 771 ft | 139 kts | 165° |
| 2026-04-24 21:07 | 53.52417 | 50.16419 | 596 ft | 134 kts | 165° |
| 2026-04-24 21:08 | 53.51645 | 50.16959 | 788 ft | 105 kts | 168° |
| 2026-04-24 21:08 | 53.50955 | 50.17437 | 628 ft | 112 kts | 152° |
| 2026-04-24 21:08 | 53.50238 | 50.18264 | 769 ft | 138 kts | 150° |
| 2026-04-24 21:08 | 53.49435 | 50.19117 | 1338 ft | 131 kts | 150° |
| 2026-04-24 21:09 | 53.48665 | 50.19969 | 1815 ft | 140 kts | 152° |
| 2026-04-24 21:09 | 53.47791 | 50.20884 | 1826 ft | 159 kts | 152° |
| 2026-04-24 21:09 | 53.46822 | 50.22041 | 1509 ft | 175 kts | 147° |
| 2026-04-24 21:09 | 53.45912 | 50.23589 | 1785 ft | 211 kts | 122° |
| 2026-04-24 21:10 | 53.45762 | 50.26212 | 2426 ft | 246 kts | 78° |
| 2026-04-24 21:10 | 53.46746 | 50.28614 | 3532 ft | 262 kts | 41° |
| 2026-04-24 21:10 | 53.47796 | 50.29629 | 3779 ft | 266 kts | 17° |
| 2026-04-24 21:10 | 53.49624 | 50.30165 | 4026 ft | 272 kts | 7° |
| 2026-04-24 21:11 | 53.51511 | 50.30482 | 3992 ft | 271 kts | 356° |
| 2026-04-24 21:11 | 53.53405 | 50.30284 | 4019 ft | 274 kts | 352° |
| 2026-04-24 21:11 | 53.55307 | 50.30002 | 3996 ft | 274 kts | 352° |
| 2026-04-24 21:11 | 53.57204 | 50.29751 | 3995 ft | 273 kts | 353° |
| 2026-04-24 21:12 | 53.59103 | 50.29544 | 4002 ft | 273 kts | 354° |
| 2026-04-24 21:12 | 53.61001 | 50.29374 | 3998 ft | 274 kts | 354° |
| 2026-04-24 21:12 | 53.62910 | 50.29225 | 4002 ft | 275 kts | 354° |
| 2026-04-24 21:12 | 53.64818 | 50.29088 | 4004 ft | 275 kts | 356° |
| 2026-04-24 21:13 | 53.66716 | 50.29068 | 4001 ft | 276 kts | 357° |
| 2026-04-24 21:13 | 53.68637 | 50.29086 | 3995 ft | 276 kts | 358° |
| 2026-04-24 21:13 | 53.70549 | 50.29108 | 4001 ft | 276 kts | 358° |
| 2026-04-24 21:13 | 53.72475 | 50.29133 | 4004 ft | 276 kts | 358° |
| 2026-04-24 21:14 | 53.74396 | 50.29161 | 3997 ft | 275 kts | 358° |
| 2026-04-24 21:14 | 53.76312 | 50.29194 | 3994 ft | 275 kts | 358° |
| 2026-04-24 21:14 | 53.78218 | 50.29228 | 3988 ft | 270 kts | 358° |
| 2026-04-24 21:14 | 53.80012 | 50.28857 | 3981 ft | 249 kts | 336° |
| 2026-04-24 21:15 | 53.81383 | 50.27404 | 3981 ft | 222 kts | 298° |
| 2026-04-24 21:15 | 53.81828 | 50.25126 | 3995 ft | 196 kts | 255° |
| 2026-04-24 21:15 | 53.81402 | 50.23086 | 4048 ft | 181 kts | 240° |
| 2026-04-24 21:15 | 53.80947 | 50.21113 | 4025 ft | 178 kts | 242° |
| 2026-04-24 21:16 | 53.80513 | 50.19153 | 4026 ft | 178 kts | 242° |
| 2026-04-24 21:16 | 53.79986 | 50.17275 | 3992 ft | 173 kts | 222° |
| 2026-04-24 21:16 | 53.78934 | 50.16538 | 4028 ft | 167 kts | 185° |
| 2026-04-24 21:16 | 53.77807 | 50.16229 | 4029 ft | 166 kts | 196° |
| 2026-04-24 21:17 | 53.76716 | 50.15653 | 4039 ft | 163 kts | 199° |
| 2026-04-24 21:17 | 53.75645 | 50.14956 | 3927 ft | 166 kts | 202° |
| 2026-04-24 21:17 | 53.74604 | 50.14135 | 3897 ft | 163 kts | 204° |
| 2026-04-24 21:17 | 53.73599 | 50.13272 | 3847 ft | 162 kts | 207° |
| 2026-04-24 21:18 | 53.72612 | 50.12335 | 3791 ft | 163 kts | 208° |
| 2026-04-24 21:18 | 53.71637 | 50.11373 | 3575 ft | 163 kts | 208° |
| 2026-04-24 21:18 | 53.70654 | 50.10386 | 3213 ft | 165 kts | 208° |
| 2026-04-24 21:18 | 53.69674 | 50.09392 | 2863 ft | 163 kts | 208° |
| 2026-04-24 21:19 | 53.68708 | 50.08413 | 2499 ft | 160 kts | 206° |
| 2026-04-24 21:19 | 53.67650 | 50.07937 | 2147 ft | 157 kts | 186° |
| 2026-04-24 21:19 | 53.66590 | 50.08145 | 1953 ft | 161 kts | 164° |
| 2026-04-24 21:19 | 53.65507 | 50.08743 | 1919 ft | 163 kts | 165° |
| 2026-04-24 21:20 | 53.63389 | 50.09953 | 1906 ft | 160 kts | 163° |
| 2026-04-24 21:20 | 53.62352 | 50.10571 | 1880 ft | 152 kts | 163° |
| 2026-04-24 21:20 | 53.61396 | 50.11143 | 1888 ft | 141 kts | 163° |
| 2026-04-24 21:21 | 53.60479 | 50.11692 | 1939 ft | 140 kts | 163° |
| 2026-04-24 21:21 | 53.59547 | 50.12247 | 1877 ft | 142 kts | 163° |
| 2026-04-24 21:21 | 53.58614 | 50.12804 | 1729 ft | 142 kts | 163° |
| 2026-04-24 21:21 | 53.57693 | 50.13355 | 1563 ft | 140 kts | 163° |
| 2026-04-24 21:22 | 53.56778 | 50.13904 | 1406 ft | 141 kts | 163° |
| 2026-04-24 21:22 | 53.55853 | 50.14456 | 1231 ft | 141 kts | 163° |
| 2026-04-24 21:22 | 53.54928 | 50.15011 | 1062 ft | 141 kts | 162° |
| 2026-04-24 21:22 | 53.54013 | 50.15593 | 894 ft | 140 kts | 163° |
| 2026-04-24 21:23 | 53.53083 | 50.16110 | 726 ft | 142 kts | 163° |
| 2026-04-24 21:23 | 53.52156 | 50.16676 | 522 ft | 141 kts | 162° |
| 2026-04-24 21:23 | 53.51252 | 50.17200 | 411 ft | 125 kts | 161° |
| 2026-04-24 21:23 | 53.50582 | 50.17601 | 411 ft | 82 kts | 161° |
| 2026-04-24 21:24 | 53.50132 | 50.17872 | 411 ft | 63 kts | 160° |
| 2026-04-24 21:24 | 53.49746 | 50.18102 | 415 ft | 55 kts | 160° |
| 2026-04-24 21:24 | 53.49452 | 50.18279 | 408 ft | 25 kts | 159° |
| 2026-04-24 21:24 | 53.49304 | 50.18245 | 405 ft | 23 kts | 234° |
| 2026-04-24 21:25 | 53.49280 | 50.18075 | 411 ft | 0 kts | 279° |
| 2026-04-24 21:25 | 53.49287 | 50.18034 | 409 ft | 10 kts | 291° |
| 2026-04-24 21:26 | 53.49348 | 50.17927 | 409 ft | 13 kts | 335° |
| 2026-04-24 21:26 | 53.49438 | 50.17871 | 416 ft | 16 kts | 340° |
| 2026-04-24 21:26 | 53.49570 | 50.17790 | 413 ft | 22 kts | 339° |
| 2026-04-24 21:26 | 53.49730 | 50.17694 | 418 ft | 26 kts | 340° |
| 2026-04-24 21:27 | 53.49893 | 50.17595 | 418 ft | 24 kts | 340° |
| 2026-04-24 21:27 | 53.50049 | 50.17499 | 413 ft | 24 kts | 340° |
| 2026-04-24 21:27 | 53.50217 | 50.17401 | 417 ft | 27 kts | 340° |
| 2026-04-24 21:27 | 53.50402 | 50.17289 | 420 ft | 29 kts | 340° |
| 2026-04-24 21:28 | 53.50587 | 50.17181 | 419 ft | 27 kts | 341° |
| 2026-04-24 21:28 | 53.50759 | 50.17079 | 426 ft | 25 kts | 340° |
| 2026-04-24 21:28 | 53.50889 | 50.16911 | 463 ft | 24 kts | 302° |
| 2026-04-24 21:28 | 53.50971 | 50.16685 | 469 ft | 23 kts | 302° |
| 2026-04-24 21:29 | 53.51058 | 50.16446 | 456 ft | 21 kts | 301° |
| 2026-04-24 21:29 | 53.51134 | 50.16233 | 438 ft | 23 kts | 301° |
| 2026-04-24 21:29 | 53.51159 | 50.16111 | 439 ft | 8 kts | 288° |
| 2026-04-24 21:29 | 53.51130 | 50.16039 | 435 ft | 8 kts | 216° |
| 2026-04-24 21:30 | 53.51102 | 50.15965 | 443 ft | 8 kts | 262° |
| 2026-04-24 21:30 | 53.51136 | 50.15899 | 441 ft | 9 kts | 330° |
| 2026-04-24 21:30 | 53.51153 | 50.15882 | 440 ft | 3 kts | 329° |
| 2026-04-24 21:30 | 53.51157 | 50.15879 | 429 ft | 0 kts | 329° |